Aviation Digital Data Service (ADDS)

Output produced by METARs form (1740 UTC 21 April 2018)
found at http://aviationweather.gov/adds/metars/
 
LHPR 211715Z AUTO 23005KT CAVOK 22/09 Q1016 RMK BLU
LHPR 211645Z AUTO 23005KT 200V260 CAVOK 23/10 Q1016 RMK BLU
LHPR 211615Z AUTO 22006KT 190V250 CAVOK 25/09 Q1017 RMK BLU
LHPR 211545Z 23007KT 180V260 CAVOK 25/08 Q1017 RMK BLU
LHPR 211515Z 22006KT 180V250 CAVOK 26/09 Q1017 RMK BLU
LHPR 211445Z 23008KT 190V260 CAVOK 26/07 Q1017 RMK BLU
LHPR 211415Z 24008KT 200V270 CAVOK 26/09 Q1018 RMK BLU
LHPR 211345Z 23008KT 190V260 CAVOK 26/07 Q1018 RMK BLU
LHPR 211315Z 22008KT 180V260 CAVOK 26/07 Q1018 RMK BLU
LHPR 211245Z 22008KT 190V270 CAVOK 26/11 Q1019 RMK BLU
LHPR 211215Z 23007KT 170V260 CAVOK 25/08 Q1019 RMK BLU
LHPR 211145Z 21007KT 160V260 CAVOK 25/10 Q1019 RMK BLU